Time;durP1;ratioP1;P1;durP2;ratioP2;P2;SDS_P1;SDS_P2;PMS_P1;PMS_P2;Temp;Humidity;BMP_temperature;BMP_pressure;BME280_temperature;BME280_humidity;BME280_pressure;Samples;Min_cycle;Max_cycle;Signal;HPM_P1;HPM_P2
2022/08/24 00:00:59;;;;;;;1.70;0.57;;;23.90;66.70;;;;;;5016183;28;20022;-68
2022/08/24 00:03:25;;;;;;;3.30;0.70;;;23.90;66.80;;;;;;5015138;28;20034;-67
2022/08/24 00:05:52;;;;;;;0.68;0.38;;;23.90;66.90;;;;;;5014608;28;20558;-67
2022/08/24 00:08:18;;;;;;;2.05;0.57;;;23.90;66.80;;;;;;5014718;28;20414;-67
2022/08/24 00:10:44;;;;;;;1.77;0.50;;;23.90;66.80;;;;;;5014714;28;20105;-67
2022/08/24 00:13:10;;;;;;;4.03;0.55;;;23.90;66.80;;;;;;5015932;28;20101;-68
2022/08/24 00:15:35;;;;;;;1.05;0.50;;;23.90;66.90;;;;;;5015886;28;20022;-67
2022/08/24 00:18:01;;;;;;;1.23;0.52;;;23.90;66.90;;;;;;5015787;28;20109;-67
2022/08/24 00:20:28;;;;;;;1.88;0.60;;;23.90;66.90;;;;;;5015615;28;20022;-67
2022/08/24 00:22:53;;;;;;;2.35;0.82;;;23.90;66.90;;;;;;5020316;28;20025;-67
2022/08/24 00:25:19;;;;;;;1.00;0.68;;;23.90;66.90;;;;;;5034316;28;20025;-67
2022/08/24 00:27:45;;;;;;;3.65;0.50;;;23.90;66.90;;;;;;5035167;28;20152;-67
2022/08/24 00:30:14;;;;;;;2.65;0.40;;;23.90;67.00;;;;;;5034269;28;20029;-68
2022/08/24 00:32:40;;;;;;;2.17;0.50;;;23.90;67.00;;;;;;5033979;28;20041;-67
2022/08/24 00:35:06;;;;;;;3.13;0.60;;;23.90;67.10;;;;;;5033896;28;20029;-67
2022/08/24 00:37:32;;;;;;;2.00;0.60;;;23.90;67.10;;;;;;5035285;28;20026;-73
2022/08/24 00:39:58;;;;;;;4.03;0.70;;;23.90;67.20;;;;;;5035245;28;20018;-73
2022/08/24 00:42:24;;;;;;;1.42;0.52;;;23.90;67.20;;;;;;5034063;28;20056;-73
2022/08/24 00:44:49;;;;;;;3.72;0.60;;;23.90;67.20;;;;;;5035095;28;20030;-73
2022/08/24 00:47:23;;;;;;;2.42;0.57;;;23.90;67.20;;;;;;5034964;28;20077;-73
2022/08/24 00:49:59;;;;;;;2.03;0.60;;;23.90;67.20;;;;;;5034801;28;20030;-73
2022/08/24 00:52:28;;;;;;;1.15;0.55;;;23.90;67.20;;;;;;5033815;28;20037;-73
2022/08/24 00:55:06;;;;;;;1.55;0.52;;;23.90;67.20;;;;;;5026178;28;20022;-73
2022/08/24 00:57:34;;;;;;;1.30;0.52;;;23.90;67.20;;;;;;5014190;28;20021;-73
2022/08/24 01:00:04;;;;;;;2.45;0.60;;;24.00;67.30;;;;;;5013774;28;20503;-73
2022/08/24 01:02:33;;;;;;;3.65;0.52;;;23.90;67.30;;;;;;5013870;28;20034;-73
2022/08/24 01:05:02;;;;;;;2.40;0.43;;;24.00;67.30;;;;;;5013561;28;20026;-73
2022/08/24 01:07:29;;;;;;;3.20;0.50;;;24.00;67.30;;;;;;5013770;28;20105;-73
2022/08/24 01:09:57;;;;;;;1.80;0.47;;;24.00;67.40;;;;;;5013681;28;20393;-73
2022/08/24 01:12:23;;;;;;;0.63;0.43;;;24.00;67.30;;;;;;5013619;28;20053;-73
2022/08/24 01:14:49;;;;;;;2.95;0.77;;;24.00;67.40;;;;;;5013483;28;20053;-73
2022/08/24 01:19:58;;;;;;;1.63;0.70;;;23.90;67.30;;;;;;5014461;28;20025;-73
2022/08/24 01:22:46;;;;;;;3.53;0.50;;;23.90;67.30;;;;;;5013541;28;20022;-73
2022/08/24 01:25:12;;;;;;;1.85;0.30;;;23.90;67.30;;;;;;5013518;28;20492;-73
2022/08/24 01:27:37;;;;;;;2.53;0.57;;;23.90;67.30;;;;;;5013226;28;20041;-73
2022/08/24 01:30:07;;;;;;;2.45;0.60;;;23.90;67.40;;;;;;5014567;28;20022;-73
2022/08/24 01:32:33;;;;;;;0.40;0.40;;;24.00;67.40;;;;;;5013006;28;20049;-73
2022/08/24 01:34:59;;;;;;;3.40;0.60;;;24.00;67.40;;;;;;5013342;28;20026;-73
2022/08/24 01:37:24;;;;;;;0.75;0.40;;;24.00;67.50;;;;;;5013198;28;20136;-73
2022/08/24 01:39:52;;;;;;;1.40;0.40;;;24.00;67.50;;;;;;5014165;28;20102;-73
2022/08/24 01:42:18;;;;;;;1.30;0.55;;;24.00;67.60;;;;;;5013356;28;20475;-73
2022/08/24 01:44:44;;;;;;;1.17;0.40;;;24.00;67.50;;;;;;5012965;28;20026;-73
2022/08/24 01:47:11;;;;;;;1.20;0.47;;;24.00;67.50;;;;;;5029788;28;20030;-73
2022/08/24 01:49:39;;;;;;;1.77;0.43;;;24.00;67.70;;;;;;5033964;28;20113;-73
2022/08/24 01:52:05;;;;;;;2.58;0.63;;;24.00;67.60;;;;;;5032662;28;20033;-73
2022/08/24 01:54:31;;;;;;;2.85;0.50;;;24.00;67.50;;;;;;5029244;28;20022;-73
2022/08/24 01:56:57;;;;;;;3.95;0.63;;;24.00;67.50;;;;;;5012745;28;20053;-73
2022/08/24 01:59:24;;;;;;;0.65;0.43;;;24.00;67.50;;;;;;5013023;28;20091;-73
2022/08/24 02:01:52;;;;;;;0.98;0.40;;;24.00;67.50;;;;;;5013412;28;20026;-73
2022/08/24 02:04:18;;;;;;;1.92;0.50;;;24.00;67.50;;;;;;5012874;28;20022;-73
2022/08/24 02:06:44;;;;;;;2.60;0.40;;;24.00;67.60;;;;;;5012734;28;20068;-73
2022/08/24 02:09:10;;;;;;;1.35;0.30;;;24.00;67.50;;;;;;5012514;28;20105;-73
2022/08/24 02:11:36;;;;;;;0.75;0.50;;;24.00;67.60;;;;;;5012740;28;20033;-73
2022/08/24 02:14:02;;;;;;;1.70;0.40;;;24.00;67.60;;;;;;5012364;28;20022;-73
2022/08/24 02:16:28;;;;;;;1.00;0.50;;;24.00;67.70;;;;;;5013495;28;20065;-73
2022/08/24 02:18:53;;;;;;;0.80;0.40;;;24.00;67.50;;;;;;5013035;28;20609;-73
2022/08/24 02:21:19;;;;;;;0.45;0.40;;;24.00;67.50;;;;;;5013560;28;20472;-73
2022/08/24 02:23:44;;;;;;;1.63;0.47;;;24.00;67.50;;;;;;5013346;28;20112;-73
2022/08/24 02:26:10;;;;;;;5.10;0.50;;;24.00;67.50;;;;;;5013605;28;20033;-73
2022/08/24 02:28:36;;;;;;;1.15;0.55;;;24.00;67.60;;;;;;5013356;28;20026;-73
2022/08/24 02:31:04;;;;;;;0.98;0.50;;;24.00;67.60;;;;;;5011807;28;20034;-72
2022/08/24 02:33:30;;;;;;;1.00;0.50;;;24.00;67.50;;;;;;5012206;28;20100;-73
2022/08/24 02:35:56;;;;;;;0.75;0.50;;;24.00;67.50;;;;;;5013221;28;20029;-72
2022/08/24 02:38:22;;;;;;;2.08;0.30;;;24.00;67.60;;;;;;5013234;28;20030;-72
2022/08/24 02:40:47;;;;;;;1.02;0.35;;;24.00;67.50;;;;;;5012153;28;20030;-72
2022/08/24 02:43:13;;;;;;;3.33;0.85;;;24.00;67.50;;;;;;5011916;28;20085;-72
2022/08/24 02:45:44;;;;;;;1.48;0.40;;;24.00;67.50;;;;;;5013132;28;20026;-73
2022/08/24 02:48:09;;;;;;;1.33;0.77;;;24.00;67.50;;;;;;5026364;28;20025;-72
2022/08/24 02:50:39;;;;;;;1.15;0.47;;;24.00;67.50;;;;;;5031802;28;20029;-72
2022/08/24 02:53:05;;;;;;;2.58;0.40;;;24.00;67.60;;;;;;5031534;28;20506;-73
2022/08/24 02:55:31;;;;;;;1.92;0.40;;;24.00;67.50;;;;;;5020240;28;20053;-73
2022/08/24 02:57:57;;;;;;;1.35;0.40;;;24.00;67.50;;;;;;5011682;28;20053;-73
2022/08/24 03:00:22;;;;;;;1.65;0.50;;;24.00;67.60;;;;;;5012895;28;20026;-73
2022/08/24 03:02:48;;;;;;;1.13;0.55;;;24.00;67.60;;;;;;5013022;28;20033;-73
2022/08/24 03:05:14;;;;;;;1.50;0.50;;;24.00;67.50;;;;;;5012820;28;20548;-73
2022/08/24 03:07:39;;;;;;;0.47;0.28;;;24.00;67.50;;;;;;5011731;28;20029;-73
2022/08/24 03:10:06;;;;;;;0.68;0.35;;;24.00;67.50;;;;;;5012855;28;20038;-73
2022/08/24 03:12:33;;;;;;;1.80;0.50;;;24.00;67.50;;;;;;5011676;28;20065;-73
2022/08/24 03:15:01;;;;;;;0.63;0.30;;;24.00;67.50;;;;;;5011383;28;20079;-73
2022/08/24 03:17:29;;;;;;;2.10;0.40;;;24.00;67.50;;;;;;5012900;28;20018;-73
2022/08/24 03:19:55;;;;;;;2.28;0.45;;;24.00;67.50;;;;;;5012755;28;20022;-73
2022/08/24 03:22:21;;;;;;;1.83;0.45;;;24.00;67.50;;;;;;5012668;28;20022;-73
2022/08/24 03:24:47;;;;;;;0.57;0.40;;;24.00;67.50;;;;;;5012633;28;20026;-73
2022/08/24 03:27:13;;;;;;;0.95;0.32;;;24.00;67.60;;;;;;5012644;28;20030;-73
2022/08/24 03:29:39;;;;;;;1.67;0.50;;;24.00;67.50;;;;;;5011467;28;20041;-73
2022/08/24 03:32:04;;;;;;;1.38;0.30;;;24.00;67.50;;;;;;5015900;28;20535;-72
2022/08/24 03:34:30;;;;;;;0.75;0.55;;;24.00;67.50;;;;;;5016603;28;20057;-73
2022/08/24 03:36:56;;;;;;;2.10;0.55;;;24.00;67.50;;;;;;5016687;28;20026;-73
2022/08/24 03:39:22;;;;;;;1.63;0.50;;;24.00;67.50;;;;;;5016524;28;20026;-73
2022/08/24 03:41:47;;;;;;;0.82;0.40;;;24.00;67.50;;;;;;5016509;28;20030;-73
2022/08/24 03:44:13;;;;;;;0.60;0.40;;;24.00;67.50;;;;;;5016255;28;20026;-73
2022/08/24 03:46:39;;;;;;;0.93;0.50;;;24.00;67.50;;;;;;5017293;28;20030;-73
2022/08/24 03:49:07;;;;;;;1.30;0.65;;;24.00;67.50;;;;;;5036213;28;20045;-73
2022/08/24 03:51:33;;;;;;;0.20;0.20;;;24.00;67.60;;;;;;5036275;28;20028;-73
2022/08/24 03:53:59;;;;;;;0.40;0.40;;;24.00;67.60;;;;;;5034885;28;20545;-73
2022/08/24 03:56:25;;;;;;;1.27;0.50;;;24.00;67.50;;;;;;5016353;28;20124;-73
2022/08/24 03:58:51;;;;;;;1.33;0.50;;;24.00;67.50;;;;;;5015998;28;20084;-73
2022/08/24 04:01:17;;;;;;;0.30;0.30;;;24.00;67.60;;;;;;5015005;28;20392;-73
2022/08/24 04:03:44;;;;;;;0.85;0.47;;;24.00;67.60;;;;;;5015044;28;20144;-73
2022/08/24 04:06:10;;;;;;;0.47;0.38;;;24.00;67.60;;;;;;5016041;28;20164;-73
2022/08/24 04:08:36;;;;;;;0.38;0.38;;;23.90;67.50;;;;;;5015002;28;20028;-73
2022/08/24 04:11:02;;;;;;;2.08;0.40;;;24.00;67.70;;;;;;5014938;28;20113;-73
2022/08/24 04:13:30;;;;;;;2.88;0.50;;;24.00;67.70;;;;;;5015889;28;20018;-73
2022/08/24 04:15:57;;;;;;;5.35;0.50;;;24.00;67.70;;;;;;5014447;28;20423;-73
2022/08/24 04:18:23;;;;;;;1.02;0.40;;;24.00;67.70;;;;;;5015998;28;20088;-73
2022/08/24 04:20:49;;;;;;;0.32;0.30;;;23.90;67.60;;;;;;5015925;28;20090;-73
2022/08/24 04:23:15;;;;;;;0.55;0.30;;;24.00;67.60;;;;;;5015703;28;20021;-73
2022/08/24 04:25:41;;;;;;;0.45;0.45;;;23.90;67.60;;;;;;5014559;28;20404;-73
2022/08/24 04:28:06;;;;;;;0.30;0.30;;;23.90;67.70;;;;;;5015442;28;20025;-73
2022/08/24 04:30:32;;;;;;;0.80;0.30;;;23.90;67.70;;;;;;5015745;28;20380;-73
2022/08/24 04:32:58;;;;;;;0.30;0.30;;;24.00;67.70;;;;;;5014462;28;20053;-73
2022/08/24 04:35:23;;;;;;;1.73;0.40;;;23.90;67.60;;;;;;5015422;28;20381;-73
2022/08/24 04:37:49;;;;;;;0.40;0.32;;;23.90;67.60;;;;;;5033522;28;20033;-73
2022/08/24 04:40:15;;;;;;;0.98;0.50;;;24.00;67.80;;;;;;5035046;28;20018;-72
2022/08/24 04:42:40;;;;;;;0.38;0.30;;;23.90;67.60;;;;;;5034387;28;20021;-72
2022/08/24 04:45:06;;;;;;;1.23;0.30;;;23.90;67.60;;;;;;5035029;28;20061;-72
2022/08/24 04:47:32;;;;;;;0.60;0.30;;;24.00;68.00;;;;;;5033655;28;20029;-73
2022/08/24 04:49:58;;;;;;;0.43;0.40;;;23.90;67.70;;;;;;5034982;28;20056;-73
2022/08/24 04:52:23;;;;;;;0.55;0.40;;;24.00;67.70;;;;;;5035049;28;20022;-72
2022/08/24 04:54:49;;;;;;;0.75;0.32;;;23.90;67.70;;;;;;5033588;28;20036;-73
2022/08/24 04:57:15;;;;;;;1.08;0.60;;;23.90;67.60;;;;;;5034767;28;20032;-72
2022/08/24 04:59:42;;;;;;;0.98;0.40;;;23.90;67.60;;;;;;5035076;28;20029;-72
2022/08/24 05:02:08;;;;;;;0.77;0.40;;;24.00;67.70;;;;;;5034643;28;20082;-72
2022/08/24 05:04:34;;;;;;;0.70;0.30;;;24.00;67.70;;;;;;5034864;28;20483;-72
2022/08/24 05:06:59;;;;;;;0.85;0.40;;;24.00;67.70;;;;;;5033737;28;20021;-72
2022/08/24 05:09:25;;;;;;;0.40;0.40;;;24.00;67.70;;;;;;5034757;28;20111;-72
2022/08/24 05:11:52;;;;;;;0.40;0.30;;;23.90;67.70;;;;;;5033279;28;20431;-73
2022/08/24 05:14:18;;;;;;;0.55;0.32;;;24.00;67.70;;;;;;5034664;28;20030;-72
2022/08/24 05:16:43;;;;;;;1.27;0.20;;;24.00;67.60;;;;;;5034904;28;20021;-72
2022/08/24 05:19:11;;;;;;;0.63;0.38;;;24.00;67.00;;;;;;5034322;28;20035;-71
2022/08/24 05:21:37;;;;;;;1.80;0.30;;;23.90;66.70;;;;;;5034453;28;20021;-71
2022/08/24 05:24:03;;;;;;;1.15;0.30;;;23.90;66.70;;;;;;5034423;28;20037;-71
2022/08/24 05:26:30;;;;;;;1.70;0.20;;;23.90;66.70;;;;;;5034242;28;20022;-71
2022/08/24 05:28:57;;;;;;;1.08;0.30;;;23.90;66.60;;;;;;5034291;28;20017;-72
2022/08/24 05:31:24;;;;;;;0.20;0.20;;;23.90;66.60;;;;;;5034276;28;20064;-71
2022/08/24 05:33:49;;;;;;;0.65;0.30;;;23.90;66.40;;;;;;5034196;28;20041;-71
2022/08/24 05:36:17;;;;;;;0.60;0.30;;;23.90;66.50;;;;;;5034131;28;20025;-72
2022/08/24 05:38:43;;;;;;;0.50;0.40;;;23.90;66.40;;;;;;5032988;28;20021;-71
2022/08/24 05:41:09;;;;;;;0.70;0.30;;;23.90;66.40;;;;;;5033866;28;20373;-71
2022/08/24 05:43:34;;;;;;;1.27;0.20;;;23.90;66.30;;;;;;5033117;28;20480;-71
2022/08/24 05:46:00;;;;;;;0.22;0.20;;;23.90;66.30;;;;;;5033867;28;20029;-71
2022/08/24 05:48:26;;;;;;;0.25;0.20;;;23.90;66.30;;;;;;5033900;28;20033;-71
2022/08/24 05:50:55;;;;;;;0.30;0.30;;;23.90;66.30;;;;;;5032892;28;20075;-71
2022/08/24 05:53:21;;;;;;;0.38;0.30;;;23.90;66.20;;;;;;5032973;28;20113;-71
2022/08/24 05:55:46;;;;;;;0.28;0.25;;;23.90;66.20;;;;;;5017757;28;20109;-71
2022/08/24 05:58:12;;;;;;;0.40;0.25;;;23.90;66.20;;;;;;5019253;28;20446;-72
2022/08/24 06:00:38;;;;;;;2.50;0.40;;;23.90;66.30;;;;;;5032426;28;20022;-71
2022/08/24 06:03:03;;;;;;;0.45;0.32;;;23.90;66.20;;;;;;5033604;28;20028;-71
2022/08/24 06:05:29;;;;;;;9.50;0.60;;;23.90;66.10;;;;;;5032580;28;20032;-72
2022/08/24 06:07:54;;;;;;;3.80;0.32;;;23.90;66.20;;;;;;5033499;28;20400;-72
2022/08/24 06:10:20;;;;;;;1.20;0.30;;;23.90;66.20;;;;;;5033279;28;20502;-73
2022/08/24 06:12:46;;;;;;;0.73;0.38;;;23.90;66.10;;;;;;5033585;28;20033;-72
2022/08/24 06:15:12;;;;;;;0.55;0.28;;;23.80;66.10;;;;;;5033172;28;20025;-72
2022/08/24 06:17:38;;;;;;;1.65;0.20;;;23.90;66.10;;;;;;5033570;28;20021;-72
2022/08/24 06:20:04;;;;;;;1.85;0.40;;;23.90;66.10;;;;;;5033209;28;20028;-72
2022/08/24 06:22:29;;;;;;;0.38;0.30;;;23.80;66.10;;;;;;5033043;28;20502;-72
2022/08/24 06:27:40;;;;;;;4.32;0.40;;;23.80;66.10;;;;;;5033210;28;20053;-72
2022/08/24 06:30:08;;;;;;;0.30;0.20;;;23.80;66.00;;;;;;5031936;28;20453;-72
2022/08/24 06:32:34;;;;;;;0.95;0.30;;;23.80;66.00;;;;;;5031822;28;20052;-72
2022/08/24 06:35:00;;;;;;;0.68;0.20;;;23.80;66.10;;;;;;5031730;28;20021;-72
2022/08/24 06:37:26;;;;;;;1.50;0.63;;;23.80;66.10;;;;;;5031701;28;20025;-72
2022/08/24 06:39:56;;;;;;;0.55;0.20;;;23.80;66.10;;;;;;5033117;28;20048;-73
2022/08/24 06:42:23;;;;;;;1.52;0.40;;;23.80;66.20;;;;;;5031519;28;20021;-73
2022/08/24 06:44:49;;;;;;;0.38;0.30;;;23.80;66.10;;;;;;5031217;28;20022;-73
2022/08/24 06:47:15;;;;;;;0.45;0.40;;;23.80;66.20;;;;;;5030568;28;20032;-73
2022/08/24 06:49:41;;;;;;;2.28;0.60;;;23.80;66.20;;;;;;5030640;28;20025;-73
2022/08/24 06:52:07;;;;;;;4.75;0.80;;;23.80;66.10;;;;;;5032167;28;20065;-73
2022/08/24 06:54:32;;;;;;;6.35;1.70;;;23.80;66.20;;;;;;5026538;28;20069;-73
2022/08/24 06:56:58;;;;;;;3.05;1.00;;;23.80;66.20;;;;;;5021403;28;20035;-73
2022/08/24 06:59:26;;;;;;;6.63;1.15;;;23.70;66.20;;;;;;5031206;28;20033;-73
2022/08/24 07:01:54;;;;;;;4.63;1.13;;;23.70;66.20;;;;;;5032614;28;20032;-73
2022/08/24 07:04:20;;;;;;;5.32;1.17;;;23.70;66.20;;;;;;5030023;28;20024;-73
2022/08/24 07:06:46;;;;;;;8.27;2.13;;;23.70;66.20;;;;;;5011061;28;20033;-73
2022/08/24 07:09:12;;;;;;;7.75;2.13;;;23.70;66.20;;;;;;5012739;28;20428;-73
2022/08/24 07:11:37;;;;;;;14.77;2.35;;;23.70;66.30;;;;;;5012731;28;20029;-73
2022/08/24 07:14:03;;;;;;;9.77;2.13;;;23.70;66.40;;;;;;5022647;28;20031;-73
2022/08/24 07:16:29;;;;;;;10.23;1.95;;;23.70;66.40;;;;;;5032274;28;20112;-73
2022/08/24 07:18:55;;;;;;;9.40;2.70;;;23.70;66.50;;;;;;5032607;28;20392;-73
2022/08/24 07:21:21;;;;;;;7.15;2.15;;;23.70;66.50;;;;;;5032225;28;20037;-73
2022/08/24 07:23:47;;;;;;;10.15;2.42;;;23.70;66.60;;;;;;5032406;28;20025;-73
2022/08/24 07:26:18;;;;;;;6.15;2.20;;;23.70;66.60;;;;;;5032231;28;20048;-73
2022/08/24 07:28:43;;;;;;;12.20;2.97;;;23.70;66.60;;;;;;5032280;28;20040;-73
2022/08/24 07:31:09;;;;;;;16.50;3.45;;;23.70;66.60;;;;;;5021845;28;20038;-72
2022/08/24 07:33:35;;;;;;;8.82;2.58;;;23.70;66.70;;;;;;5012688;28;20481;-73
2022/08/24 07:36:00;;;;;;;10.95;2.78;;;23.70;66.70;;;;;;5011189;28;20076;-72
2022/08/24 07:38:27;;;;;;;11.90;3.15;;;23.70;66.60;;;;;;5012466;28;20096;-73
2022/08/24 07:40:52;;;;;;;9.48;2.50;;;23.70;66.60;;;;;;5012569;28;20050;-73
2022/08/24 07:43:19;;;;;;;12.10;3.22;;;23.70;66.70;;;;;;5012445;28;20046;-73
2022/08/24 07:45:46;;;;;;;9.10;2.97;;;23.70;66.70;;;;;;5011483;28;20076;-73
2022/08/24 07:48:11;;;;;;;8.52;2.95;;;23.70;66.70;;;;;;5024348;28;20436;-73
2022/08/24 07:50:37;;;;;;;9.88;2.92;;;23.70;66.70;;;;;;5032130;28;20067;-73
2022/08/24 07:53:02;;;;;;;8.07;2.33;;;23.70;66.70;;;;;;5032074;28;20017;-73
2022/08/24 07:55:28;;;;;;;8.40;2.72;;;23.70;66.70;;;;;;5032105;28;20112;-73
2022/08/24 07:57:54;;;;;;;11.75;3.15;;;23.70;66.70;;;;;;5032101;28;20018;-73
2022/08/24 08:00:20;;;;;;;10.70;3.15;;;23.70;66.60;;;;;;5030983;28;20392;-73
2022/08/24 08:02:46;;;;;;;13.27;3.75;;;23.70;66.70;;;;;;5030887;28;20022;-73
2022/08/24 08:05:15;;;;;;;10.02;3.15;;;23.70;66.70;;;;;;5021267;28;20033;-73
2022/08/24 08:07:41;;;;;;;13.00;3.38;;;23.70;66.70;;;;;;5012343;28;20018;-73
2022/08/24 08:10:08;;;;;;;9.48;3.10;;;23.70;66.70;;;;;;5012380;28;20036;-73
2022/08/24 08:12:34;;;;;;;9.80;2.42;;;23.70;66.70;;;;;;5010928;28;20025;-73
2022/08/24 08:14:59;;;;;;;9.98;3.60;;;23.70;66.70;;;;;;5012256;28;20129;-73
2022/08/24 08:17:25;;;;;;;10.00;3.28;;;23.70;66.70;;;;;;5014098;28;20014;-73
2022/08/24 08:19:51;;;;;;;12.90;3.63;;;23.70;66.70;;;;;;5015587;28;20030;-73
2022/08/24 08:25:00;;;;;;;11.65;3.17;;;23.60;66.70;;;;;;5014883;28;20432;-73
2022/08/24 08:27:26;;;;;;;11.38;3.58;;;23.60;66.70;;;;;;5015528;28;20034;-72
2022/08/24 08:29:52;;;;;;;8.10;2.92;;;23.60;66.80;;;;;;5015659;28;20130;-73
2022/08/24 08:32:18;;;;;;;10.68;3.47;;;23.60;66.70;;;;;;5015479;28;20046;-73
2022/08/24 08:34:44;;;;;;;7.25;2.75;;;23.60;66.70;;;;;;5015333;28;20022;-73
2022/08/24 08:37:10;;;;;;;9.48;3.20;;;23.60;66.80;;;;;;5014158;28;20480;-73
2022/08/24 08:39:36;;;;;;;8.38;3.05;;;23.60;66.70;;;;;;5014480;28;20033;-73
2022/08/24 08:42:12;;;;;;;8.05;2.92;;;23.60;66.70;;;;;;5014204;28;20018;-73
2022/08/24 08:44:44;;;;;;;6.38;2.45;;;23.60;66.70;;;;;;5015458;28;20057;-73
2022/08/24 08:47:45;;;;;;;9.18;3.38;;;23.60;66.80;;;;;;5019961;28;20025;-73
2022/08/24 08:50:13;;;;;;;9.27;2.70;;;23.60;66.80;;;;;;5034107;28;20087;-73
2022/08/24 08:52:47;;;;;;;10.48;3.60;;;23.60;66.80;;;;;;5034942;28;20419;-73
2022/08/24 08:55:19;;;;;;;6.85;2.75;;;23.60;66.80;;;;;;5034883;28;20112;-73
2022/08/24 08:57:59;;;;;;;8.20;2.42;;;23.60;66.70;;;;;;5034947;28;20035;-73
2022/08/24 09:00:39;;;;;;;7.78;2.70;;;23.60;66.70;;;;;;5033539;28;20026;-73
2022/08/24 09:03:20;;;;;;;9.95;2.72;;;23.60;66.80;;;;;;5033497;28;20037;-73
2022/08/24 09:06:09;;;;;;;9.02;2.88;;;23.60;66.80;;;;;;5020823;28;20472;-73
2022/08/24 09:09:04;;;;;;;8.77;2.72;;;23.60;66.90;;;;;;5013817;28;20033;-73
2022/08/24 09:11:32;;;;;;;6.07;2.90;;;23.60;66.80;;;;;;5013652;28;20030;-73
2022/08/24 09:14:16;;;;;;;8.88;2.50;;;23.60;66.80;;;;;;5014875;28;20057;-73
2022/08/24 09:16:55;;;;;;;10.82;3.00;;;23.60;66.80;;;;;;5014558;28;20026;-73
2022/08/24 09:19:33;;;;;;;8.57;2.83;;;23.60;66.90;;;;;;5013664;28;20029;-73
2022/08/24 09:22:12;;;;;;;7.45;2.40;;;23.60;66.80;;;;;;5014584;28;20476;-73
2022/08/24 09:24:53;;;;;;;7.70;2.75;;;23.60;66.80;;;;;;5013359;28;20018;-73
2022/08/24 09:27:27;;;;;;;6.22;2.45;;;23.60;66.90;;;;;;5014327;28;20472;-73
2022/08/24 09:30:10;;;;;;;4.55;2.20;;;23.60;67.00;;;;;;5014405;28;20032;-73
2022/08/24 09:33:03;;;;;;;7.68;2.50;;;23.60;67.00;;;;;;5012909;28;20049;-73
2022/08/24 09:36:04;;;;;;;7.32;2.30;;;23.60;66.80;;;;;;5013081;28;20055;-73
2022/08/24 09:38:54;;;;;;;7.82;2.70;;;23.60;66.90;;;;;;5013087;28;20427;-73
2022/08/24 09:41:20;;;;;;;10.35;3.10;;;23.60;66.90;;;;;;5013061;28;20503;-73
2022/08/24 09:44:04;;;;;;;6.43;2.38;;;23.60;67.00;;;;;;5014185;28;20022;-73
2022/08/24 09:46:41;;;;;;;9.18;2.20;;;23.60;67.00;;;;;;5013913;28;20057;-73
2022/08/24 09:49:10;;;;;;;5.35;1.98;;;23.60;67.00;;;;;;5014325;28;20034;-73
2022/08/24 09:52:12;;;;;;;7.20;2.45;;;23.60;67.00;;;;;;5014092;28;20033;-73
2022/08/24 09:55:03;;;;;;;6.20;2.38;;;23.60;67.00;;;;;;5013007;28;20032;-73
2022/08/24 09:57:57;;;;;;;6.65;2.30;;;23.60;67.00;;;;;;5013719;28;20026;-73
2022/08/24 10:00:46;;;;;;;6.38;2.10;;;23.60;66.90;;;;;;5012527;28;20105;-73
2022/08/24 10:03:30;;;;;;;6.57;2.35;;;23.60;67.00;;;;;;5012853;28;20017;-73
2022/08/24 10:06:31;;;;;;;6.90;2.10;;;23.60;67.00;;;;;;5029177;28;20117;-73
2022/08/24 10:09:18;;;;;;;9.05;2.10;;;23.60;67.00;;;;;;5032680;28;20025;-73
2022/08/24 10:12:21;;;;;;;5.25;2.20;;;23.60;67.00;;;;;;5016833;28;20450;-73
2022/08/24 10:15:04;;;;;;;6.50;2.20;;;23.60;67.00;;;;;;5033142;28;20022;-73
2022/08/24 10:17:48;;;;;;;4.50;1.90;;;23.60;67.00;;;;;;5032106;28;20480;-73
2022/08/24 10:20:24;;;;;;;7.22;2.10;;;23.60;67.00;;;;;;5033431;28;20017;-73
2022/08/24 10:23:07;;;;;;;6.95;2.15;;;23.60;67.00;;;;;;5033261;28;20518;-73
2022/08/24 10:25:35;;;;;;;;;;;23.60;67.10;;;;;;5033640;28;20509;-73
2022/08/24 10:28:19;;;;;;;5.78;2.53;;;23.60;67.00;;;;;;5033170;28;20016;-73
2022/08/24 10:31:04;;;;;;;4.05;2.10;;;23.60;67.00;;;;;;5032793;28;20033;-73
2022/08/24 10:33:32;;;;;;;7.20;2.58;;;23.60;67.00;;;;;;5031790;28;20067;-73
2022/08/24 10:36:27;;;;;;;4.60;1.70;;;23.60;67.10;;;;;;5015316;28;20404;-73
2022/08/24 10:43:32;;;;;;;3.90;2.05;;;23.60;67.00;;;;;;4991381;28;20216;-73
2022/08/24 10:45:30;;;;;;;6.25;2.33;;;23.60;67.10;;;;;;4979705;28;20033;-73
2022/08/24 10:48:07;;;;;;;4.03;1.90;;;23.60;67.00;;;;;;4975893;28;20401;-73
2022/08/24 10:50:33;;;;;;;3.47;2.20;;;23.60;67.10;;;;;;4991264;28;20069;-73
2022/08/24 10:53:24;;;;;;;6.22;2.20;;;23.60;67.10;;;;;;4991488;28;20448;-73
2022/08/24 10:56:06;;;;;;;4.75;2.22;;;23.60;67.10;;;;;;4976984;28;20041;-73
2022/08/24 10:58:49;;;;;;;4.25;1.70;;;23.60;67.10;;;;;;4975322;28;20029;-73
2022/08/24 11:01:17;;;;;;;5.18;2.42;;;23.60;67.10;;;;;;4975763;28;20049;-73
2022/08/24 11:03:48;;;;;;;5.43;2.10;;;23.60;67.10;;;;;;4974891;28;20026;-73
2022/08/24 11:06:15;;;;;;;3.58;1.65;;;23.60;67.10;;;;;;4991075;28;20041;-73
2022/08/24 11:08:49;;;;;;;3.08;1.88;;;23.60;67.10;;;;;;4991018;28;20502;-73
2022/08/24 11:11:22;;;;;;;4.78;1.95;;;23.60;67.10;;;;;;5006187;28;20046;-73
2022/08/24 11:14:25;;;;;;;3.83;2.05;;;23.60;67.10;;;;;;4990829;28;20154;-73
2022/08/24 11:16:51;;;;;;;3.67;1.58;;;23.60;67.10;;;;;;5032032;28;20045;-73
2022/08/24 11:19:25;;;;;;;2.00;1.50;;;23.70;67.10;;;;;;5031185;28;20021;-73
2022/08/24 11:21:53;;;;;;;3.80;1.77;;;23.60;67.10;;;;;;5032540;28;20504;-73
2022/08/24 11:24:52;;;;;;;2.60;1.70;;;23.60;67.10;;;;;;5031148;28;20020;-73
2022/08/24 11:27:29;;;;;;;3.45;2.08;;;23.60;67.00;;;;;;5026531;28;20034;-73
2022/08/24 11:29:57;;;;;;;5.57;2.30;;;23.60;67.10;;;;;;4978613;28;20041;-73
2022/08/24 11:32:39;;;;;;;2.13;1.70;;;23.60;67.10;;;;;;4994387;28;20069;-73
2022/08/24 11:35:06;;;;;;;5.00;1.88;;;23.60;67.10;;;;;;5010518;28;20042;-73
2022/08/24 11:37:33;;;;;;;4.68;1.83;;;23.60;67.10;;;;;;4994187;28;20037;-73
2022/08/24 11:39:59;;;;;;;4.85;1.60;;;23.60;67.10;;;;;;5010492;28;20026;-73
2022/08/24 11:42:37;;;;;;;3.05;1.60;;;23.60;67.10;;;;;;5010165;28;20440;-73
2022/08/24 11:45:24;;;;;;;5.43;1.80;;;23.70;67.10;;;;;;5010385;28;20066;-73
2022/08/24 11:47:58;;;;;;;3.25;1.60;;;23.60;67.10;;;;;;4996308;28;20034;-73
2022/08/24 11:50:45;;;;;;;5.47;1.58;;;23.60;67.10;;;;;;5010406;28;20566;-73
2022/08/24 11:53:21;;;;;;;4.40;1.85;;;23.60;67.00;;;;;;5013624;28;20149;-73
2022/08/24 11:56:09;;;;;;;3.88;1.50;;;23.70;67.20;;;;;;4998822;28;20508;-73
2022/08/24 11:58:42;;;;;;;4.95;1.95;;;23.70;67.10;;;;;;4998989;28;20026;-73
2022/08/24 12:01:31;;;;;;;5.45;1.80;;;23.70;67.10;;;;;;4997953;28;20033;-73
2022/08/24 12:04:15;;;;;;;4.30;1.80;;;23.70;67.10;;;;;;5019641;28;20029;-73
2022/08/24 12:07:14;;;;;;;4.03;1.80;;;23.70;67.10;;;;;;5015890;28;20058;-73
2022/08/24 12:10:31;;;;;;;3.78;1.65;;;23.70;67.10;;;;;;5016139;28;20033;-73
2022/08/24 12:13:16;;;;;;;2.90;1.60;;;23.70;67.00;;;;;;4994386;28;20047;-73
2022/08/24 12:15:50;;;;;;;2.72;1.48;;;23.70;67.10;;;;;;4993966;28;20051;-73
2022/08/24 12:18:51;;;;;;;3.00;1.80;;;23.70;67.10;;;;;;5010681;28;20026;-73
2022/08/24 12:21:18;;;;;;;4.45;1.92;;;23.70;67.10;;;;;;4955097;29;20062;-73
2022/08/24 12:23:49;;;;;;;3.97;1.33;;;23.70;67.10;;;;;;4955183;29;20038;-73
2022/08/24 12:26:42;;;;;;;2.55;1.38;;;23.70;67.10;;;;;;4955024;29;20114;-73
2022/08/24 12:29:14;;;;;;;2.95;1.40;;;23.70;67.00;;;;;;4954371;29;20031;-73
2022/08/24 12:31:40;;;;;;;4.30;1.42;;;23.70;67.20;;;;;;4954920;29;20090;-73
2022/08/24 12:34:15;;;;;;;3.25;1.55;;;23.70;67.10;;;;;;4955196;29;20058;-73
2022/08/24 12:37:01;;;;;;;3.33;1.67;;;23.70;67.10;;;;;;4954928;29;20047;-73
2022/08/24 12:39:30;;;;;;;2.30;1.33;;;23.70;67.10;;;;;;4954843;29;20027;-74
2022/08/24 12:42:16;;;;;;;4.78;1.88;;;23.70;67.10;;;;;;4954800;29;20070;-73
2022/08/24 12:45:01;;;;;;;3.25;1.55;;;23.70;67.00;;;;;;4954883;29;20035;-73
2022/08/24 12:47:29;;;;;;;2.67;1.35;;;23.70;67.20;;;;;;4958309;28;20039;-73
2022/08/24 12:50:02;;;;;;;3.67;1.50;;;23.70;67.20;;;;;;4993633;28;20165;-73
2022/08/24 12:53:00;;;;;;;1.55;1.30;;;23.70;67.20;;;;;;4961959;28;20034;-73
2022/08/24 12:55:46;;;;;;;2.83;1.70;;;23.70;67.20;;;;;;4977052;28;20435;-73
2022/08/24 12:58:25;;;;;;;2.28;1.63;;;23.70;67.10;;;;;;5006809;28;20069;-73
2022/08/24 13:00:50;;;;;;;3.35;1.52;;;23.70;67.10;;;;;;5015235;28;20026;-73
2022/08/24 13:03:43;;;;;;;2.60;1.27;;;23.70;67.20;;;;;;5013417;28;20026;-73
2022/08/24 13:06:24;;;;;;;2.60;1.60;;;23.80;67.10;;;;;;5030931;28;20040;-73
2022/08/24 13:08:50;;;;;;;2.03;1.35;;;23.70;67.10;;;;;;5018017;28;20120;-73
2022/08/24 13:11:25;;;;;;;1.85;1.13;;;23.70;67.10;;;;;;5017236;28;20547;-73
2022/08/24 13:13:53;;;;;;;5.45;1.58;;;23.80;67.10;;;;;;5034564;28;20033;-73
2022/08/24 13:16:50;;;;;;;2.45;1.30;;;23.80;67.10;;;;;;5034687;28;20026;-73